Latest Weather Observations for Cobar Airport

IDN60801

Issued at 3:05 pm EDT Saturday 25 October 2014 (issued every 30 minutes, with the page automatically refreshed every 10 minutes)

About weather observations | Map of weather stations | Latest weather observations for NSW | Other Formats
Station Details ID: 048237 Name: COBAR AIRPORT AWS Lat: -31.54 Lon: 145.80 Height: 218.0 m
Data from the previous 72 hours. | See also: Recent months for locations in New South Wales
Date/Time
EDT
Temp
°C
App
Temp
°C
Dew
Point
Rel
Hum
%
Delta-T
°C
Wind Press
QNH
hPa
Press
MSL
hPa
Rain
since 9 am
mm
Dir
 
Spd
km/h
Gust
km/h
Spd
kts
Gust
kts
25/03:00pm 38.5 31.7 -1.6 8 19.9 SW 24 37 13 20 1012.2 1011.6 0.0
25/02:30pm 38.8 32.8 -1.4 8 20.1 W 20 39 11 21 1012.9 1012.3 0.0
25/02:00pm 37.4 30.7 -0.8 9 19.1 WSW 24 35 13 19 1013.5 1012.9 0.0
25/01:30pm 37.6 32.5 0.8 10 18.9 NNW 17 30 9 16 1013.9 1013.4 0.0
25/01:00pm 36.5 30.9 1.3 11 18.1 NW 20 30 11 16 1014.4 1013.9 0.0
25/12:30pm 36.6 32.4 1.4 11 18.1 WSW 13 20 7 11 1015.1 1014.5 0.0
25/12:00pm 36.0 30.9 0.9 11 17.8 N 17 26 9 14 1015.6 1015.0 0.0
25/11:30am 35.3 30.9 0.4 11 17.5 NNW 13 22 7 12 1016.0 1015.4 0.0
25/11:00am 34.8 30.5 1.2 12 17.0 NE 13 20 7 11 1016.3 1015.7 0.0
25/10:30am 33.7 28.9 2.5 14 16.1 NE 17 26 9 14 1016.5 1015.9 0.0
25/10:00am 32.3 27.8 2.4 15 15.2 NE 15 19 8 10 1016.7 1016.1 0.0
25/09:30am 30.6 26.2 2.8 17 14.1 ENE 15 20 8 11 1016.7 1016.1 0.0
25/09:00am 30.0 24.8 2.3 17 13.9 ENE 19 24 10 13 1016.6 1016.0 0.0
25/08:30am 27.9 23.4 2.2 19 12.7 ENE 15 20 8 11 1016.4 1015.8 0.0
25/08:00am 24.5 21.4 3.8 26 10.3 ENE 9 11 5 6 1016.3 1015.7 0.0
25/07:30am 22.9 19.4 3.4 28 9.5 ENE 11 13 6 7 1016.0 1015.4 0.0
25/07:00am 18.9 16.2 3.9 37 7.2 ENE 7 7 4 4 1015.9 1015.3 0.0
25/06:30am 17.8 16.4 3.7 39 6.7 CALM 0 0 0 0 1015.7 1015.1 0.0
25/06:00am 18.2 15.7 3.7 38 6.9 N 6 9 3 5 1015.6 1015.0 0.0
25/05:30am 17.6 16.1 3.1 38 6.8 CALM 0 0 0 0 1015.3 1014.7 0.0
25/05:00am 18.0 16.1 2.7 36 7.1 ENE 2 6 1 3 1015.1 1014.5 0.0
25/04:30am 19.0 16.5 3.6 36 7.3 ENE 6 7 3 4 1015.0 1014.4 0.0
25/04:00am 19.0 16.5 3.6 36 7.3 ENE 6 7 3 4 1014.9 1014.3 0.0
25/03:30am 19.1 16.4 2.5 33 7.7 NE 6 7 3 4 1015.0 1014.4 0.0
25/03:00am 19.7 18.2 3.0 33 7.9 CALM 0 0 0 0 1015.1 1014.5 0.0
25/02:30am 20.7 19.2 3.0 31 8.4 CALM 0 0 0 0 1015.2 1014.6 0.0
25/02:00am 20.9 19.4 3.2 31 8.5 CALM 0 0 0 0 1015.5 1014.9 0.0
25/01:30am 20.4 18.8 2.3 30 8.5 CALM 0 0 0 0 1015.8 1015.2 0.0
25/01:00am 20.8 19.2 2.6 30 8.6 CALM 0 0 0 0 1016.0 1015.4 0.0
25/12:30am 21.5 19.9 2.2 28 9.1 CALM 0 0 0 0 1016.1 1015.5 0.0
25/12:00am 22.8 21.2 2.3 26 9.8 CALM 0 0 0 0 1016.2 1015.6 0.0
 
Date/Time
EDT
Temp
°C
App
Temp
°C
Dew
Point
Rel
Hum
%
Delta-T
°C
Wind Press
QNH
hPa
Press
MSL
hPa
Rain
since 9 am
mm
Dir
 
Spd
km/h
Gust
km/h
Spd
kts
Gust
kts
24/11:30pm 25.2 23.7 3.2 24 10.9 CALM 0 0 0 0 1016.3 1015.7 0.0
24/11:00pm 26.0 23.8 3.3 23 11.3 NNW 4 7 2 4 1016.4 1015.8 0.0
24/10:30pm 27.2 24.9 3.0 21 12.1 NW 4 9 2 5 1016.3 1015.7 0.0
24/10:00pm 27.3 24.6 2.4 20 12.3 WNW 6 7 3 4 1016.3 1015.7 0.0
24/09:30pm 28.4 25.4 1.8 18 13.1 WNW 7 9 4 5 1016.1 1015.5 0.0
24/09:00pm 29.6 26.2 2.0 17 13.7 W 9 9 5 5 1015.7 1015.1 0.0
24/08:30pm 30.8 27.3 1.2 15 14.7 W 9 11 5 6 1015.2 1014.6 0.0
24/08:00pm 32.0 28.1 1.2 14 15.4 WSW 11 15 6 8 1014.8 1014.2 0.0
24/07:30pm 33.2 27.8 1.1 13 16.1 WSW 19 26 10 14 1014.2 1013.7 0.0
24/07:00pm 33.8 27.9 1.6 13 16.4 WSW 22 30 12 16 1013.7 1013.1 0.0
24/06:30pm 34.3 28.9 -1.7 10 17.4 W 17 24 9 13 1013.4 1012.8 0.0
24/06:00pm 34.5 28.5 -1.5 10 17.5 W 20 30 11 16 1013.3 1012.7 0.0
24/05:30pm 34.8 27.1 -2.7 9 17.9 WSW 28 39 15 21 1013.2 1012.6 0.0
24/05:11pm 35.4 27.8 -2.3 9 18.2 WSW 28 46 15 25 1013.0 1012.4 0.0
24/05:00pm 35.8 28.2 -2.0 9 18.3 WSW 28 39 15 21 1012.9 1012.3 0.0
24/04:59pm 35.7 27.9 -3.6 8 18.6 WSW 28 39 15 21 1012.9 1012.3 0.0
24/04:30pm 35.7 30.6 0.7 11 17.7 WSW 17 20 9 11 1012.8 1012.2 0.0
24/04:00pm 35.2 26.2 0.3 11 17.5 WSW 37 57 20 31 1013.2 1012.6 0.0
24/03:53pm 35.9 28.1 -0.5 10 18.1 W 30 48 16 26 1013.0 1012.4 0.0
24/03:30pm 37.0 29.7 -2.7 8 19.2 W 26 41 14 22 1012.8 1012.2 0.0
24/03:06pm 38.0 30.2 -3.7 7 20.0 W 28 61 15 33 1012.5 1011.9 0.0
24/03:00pm 38.1 30.3 -3.7 7 20.1 W 28 43 15 23 1012.8 1012.2 0.0
24/02:30pm 37.0 28.0 -6.5 6 19.8 W 33 44 18 24 1013.1 1012.5 0.0
24/02:08pm 37.1 27.9 -4.4 7 19.6 WSW 35 54 19 29 1013.2 1012.6 0.0
24/02:05pm 37.5 28.0 -4.1 7 19.8 WSW 37 54 20 29 1013.3 1012.7 0.0
24/02:00pm 37.5 28.9 -4.1 7 19.8 W 32 50 17 27 1013.2 1012.6 0.0
24/01:30pm 37.3 28.5 -0.9 9 19.0 WNW 35 56 19 30 1013.5 1012.9 0.0
24/01:10pm 38.1 29.8 -1.9 8 19.7 W 32 50 17 27 1013.7 1013.1 0.0
24/01:00pm 37.0 28.4 -2.7 8 19.2 WNW 33 48 18 26 1013.8 1013.3 0.0
24/12:30pm 36.4 27.9 -1.5 9 18.6 NW 33 54 18 29 1013.9 1013.4 0.0
24/12:06pm 36.8 29.3 -1.2 9 18.8 WNW 28 50 15 27 1014.2 1013.7 0.0
24/12:00pm 37.7 31.3 0.9 10 18.9 NW 24 35 13 19 1014.4 1013.9 0.0
24/11:30am 35.7 29.8 1.9 12 17.4 NW 22 32 12 17 1015.0 1014.4 0.0
24/11:00am 34.8 29.2 3.4 14 16.5 NW 22 32 12 17 1015.2 1014.6 0.0
24/10:30am 33.5 27.9 3.3 15 15.7 NW 22 30 12 16 1015.3 1014.7 0.0
24/10:00am 32.8 27.2 3.7 16 15.2 N 22 30 12 16 1015.0 1014.4 0.0
24/09:30am 31.8 25.5 3.8 17 14.6 N 26 33 14 18 1015.0 1014.4 0.0
24/09:00am 30.6 25.3 5.1 20 13.5 N 22 30 12 16 1015.1 1014.5 0.0
24/08:30am 29.7 25.0 5.1 21 12.9 N 19 26 10 14 1015.3 1014.7 0.0
24/08:00am 27.0 22.3 5.3 25 11.3 N 19 22 10 12 1015.2 1014.6 0.0
24/07:30am 25.5 20.7 4.6 26 10.6 N 19 24 10 13 1015.2 1014.6 0.0
24/07:00am 23.4 19.0 4.9 30 9.3 NNE 17 20 9 11 1014.9 1014.3 0.0
24/06:30am 22.5 18.4 4.5 31 8.9 NNE 15 17 8 9 1014.8 1014.2 0.0
24/06:00am 23.5 19.5 4.9 30 9.4 NNE 15 19 8 10 1014.5 1014.0 0.0
24/05:30am 24.4 20.1 5.2 29 9.8 N 17 22 9 12 1014.3 1013.8 0.0
24/05:00am 24.3 19.7 5.6 30 9.6 NNE 19 26 10 14 1014.3 1013.8 0.0
24/04:30am 24.5 19.7 5.8 30 9.6 NNE 20 24 11 13 1014.1 1013.6 0.0
24/04:00am 24.7 20.1 5.5 29 9.9 NNE 19 24 10 13 1014.1 1013.6 0.0
24/03:30am 25.0 20.8 5.7 29 10.0 NNE 17 22 9 12 1014.1 1013.6 0.0
24/03:00am 25.5 21.3 5.7 28 10.2 NE 17 22 9 12 1014.3 1013.8 0.0
24/02:30am 25.0 20.8 5.7 29 10.0 NE 17 22 9 12 1014.4 1013.9 0.0
24/02:00am 25.1 21.3 5.8 29 10.0 NE 15 20 8 11 1014.9 1014.3 0.0
24/01:30am 25.3 21.2 6.0 29 10.0 ENE 17 20 9 11 1015.1 1014.5 0.0
24/01:00am 25.1 21.2 5.3 28 10.1 NE 15 20 8 11 1015.3 1014.7 0.0
24/12:30am 26.2 22.0 5.7 27 10.7 ENE 17 20 9 11 1015.5 1014.9 0.0
24/12:00am 26.0 22.5 5.6 27 10.6 ENE 13 19 7 10 1015.6 1015.0 0.0
 
Date/Time
EDT
Temp
°C
App
Temp
°C
Dew
Point
Rel
Hum
%
Delta-T
°C
Wind Press
QNH
hPa
Press
MSL
hPa
Rain
since 9 am
mm
Dir
 
Spd
km/h
Gust
km/h
Spd
kts
Gust
kts
23/11:30pm 26.4 23.0 4.2 24 11.3 ENE 11 17 6 9 1015.6 1015.0 0.0
23/11:00pm 26.0 22.4 5.0 26 10.8 NE 13 15 7 8 1015.5 1014.9 0.0
23/10:30pm 26.2 23.0 5.2 26 10.8 NE 11 13 6 7 1015.3 1014.7 0.0
23/10:00pm 25.8 22.3 5.4 27 10.5 NE 13 13 7 7 1015.2 1014.6 0.0
23/09:30pm 26.4 23.3 5.4 26 10.9 NE 11 13 6 7 1014.9 1014.3 0.0
23/09:00pm 27.5 24.4 5.7 25 11.4 ENE 11 13 6 7 1014.7 1014.1 0.0
23/08:30pm 28.9 25.7 5.1 22 12.4 NE 11 11 6 6 1014.3 1013.8 0.0
23/08:00pm 30.4 27.2 4.9 20 13.4 NE 11 13 6 7 1014.0 1013.5 0.0
23/07:30pm 31.9 28.8 5.4 19 14.2 NNE 11 13 6 7 1013.8 1013.3 0.0
23/07:00pm 33.6 31.0 4.3 16 15.5 NE 7 13 4 7 1013.6 1013.0 0.0
23/06:30pm 33.7 30.8 4.4 16 15.6 N 9 13 5 7 1013.6 1013.0 0.0
23/06:00pm 34.6 30.9 4.2 15 16.2 NNW 13 17 7 9 1013.5 1012.9 0.0
23/05:30pm 34.3 30.5 4.0 15 16.0 W 13 17 7 9 1013.5 1012.9 0.0
23/05:00pm 35.3 32.6 2.7 13 17.0 WNW 6 11 3 6 1013.6 1013.0 0.0
23/04:30pm 34.8 30.5 1.2 12 17.1 NW 13 28 7 15 1013.8 1013.3 0.0
23/04:00pm 34.5 30.5 3.1 14 16.4 W 13 22 7 12 1014.2 1013.7 0.0
23/03:30pm 35.5 32.1 3.9 14 16.8 W 11 20 6 11 1014.4 1013.9 0.0
23/03:00pm 34.5 29.6 5.0 16 15.9 NNW 20 28 11 15 1014.8 1014.2 0.0
23/02:30pm 33.1 29.5 4.8 17 15.1 NW 13 24 7 13 1015.3 1014.7 0.0
23/02:00pm 33.5 28.6 5.1 17 15.2 W 20 28 11 15 1015.8 1015.2 0.0
23/01:30pm 32.7 29.7 6.1 19 14.4 WNW 11 20 6 11 1016.2 1015.6 0.0
23/01:00pm 32.5 28.3 5.9 19 14.4 W 17 26 9 14 1016.6 1016.0 0.0
23/12:30pm 32.1 28.7 7.7 22 13.6 WNW 15 22 8 12 1017.2 1016.6 0.0
23/12:00pm 31.4 27.1 7.8 23 13.1 W 20 26 11 14 1017.8 1017.3 0.0
23/11:30am 31.0 25.3 6.8 22 13.2 W 26 30 14 16 1018.0 1017.5 0.0
23/11:00am 30.3 26.1 8.1 25 12.3 NNW 20 28 11 15 1018.4 1017.9 0.0
23/10:30am 28.4 25.5 8.1 28 11.1 N 13 20 7 11 1018.7 1018.2 0.0
23/10:00am 27.3 23.3 8.2 30 10.4 N 19 26 10 14 1018.6 1018.1 0.0
23/09:30am 26.7 22.9 7.7 30 10.3 N 17 22 9 12 1018.7 1018.2 0.0
23/09:00am 27.0 22.4 8.0 30 10.3 N 22 30 12 16 1018.6 1018.1 0.0
23/08:30am 24.7 21.4 8.2 35 8.9 N 15 20 8 11 1018.5 1018.0 0.0
23/08:00am 23.4 20.5 8.3 38 8.1 NNE 13 20 7 11 1018.4 1017.9 0.0
23/07:30am 21.6 19.1 8.1 42 7.1 NE 11 13 6 7 1018.2 1017.7 0.0
23/07:00am 20.2 17.9 7.6 44 6.5 NNE 9 11 5 6 1018.3 1017.8 0.0
23/06:30am 20.7 17.6 7.3 42 6.9 NNE 13 17 7 9 1018.3 1017.8 0.0
23/06:00am 20.4 17.8 7.7 44 6.6 N 11 13 6 7 1018.1 1017.6 0.0
23/05:30am 19.4 17.4 7.2 45 6.3 N 7 9 4 5 1017.9 1017.4 0.0
23/05:00am 20.2 17.8 6.9 42 6.8 NNE 9 11 5 6 1017.7 1017.1 0.0
23/04:30am 20.8 18.3 6.7 40 7.2 N 9 11 5 6 1017.6 1017.0 0.0
23/04:00am 21.3 18.4 6.4 38 7.6 NNE 11 17 6 9 1017.5 1016.9 0.0
23/03:30am 21.7 18.3 6.0 36 8.0 NNE 13 17 7 9 1017.5 1016.9 0.0
23/03:00am 22.3 18.6 6.1 35 8.3 NNE 15 20 8 11 1017.7 1017.1 0.0
23/02:30am 23.1 19.7 6.0 33 8.8 N 13 17 7 9 1018.0 1017.5 0.0
23/02:00am 24.0 19.5 6.3 32 9.2 NNE 19 24 10 13 1017.9 1017.4 0.0
23/01:30am 24.1 19.9 5.9 31 9.4 NNE 17 20 9 11 1018.0 1017.5 0.0
23/01:00am 24.9 20.4 6.1 30 9.8 NNE 19 22 10 12 1018.0 1017.5 0.0
23/12:30am 24.2 21.3 6.5 32 9.2 ENE 11 13 6 7 1018.3 1017.8 0.0
23/12:00am 25.4 21.9 7.1 31 9.7 ENE 15 20 8 11 1018.5 1018.0 0.0
 
Date/Time
EDT
Temp
°C
App
Temp
°C
Dew
Point
Rel
Hum
%
Delta-T
°C
Wind Press
QNH
hPa
Press
MSL
hPa
Rain
since 9 am
mm
Dir
 
Spd
km/h
Gust
km/h
Spd
kts
Gust
kts
22/11:30pm 24.9 21.6 6.6 31 9.6 NE 13 17 7 9 1018.9 1018.4 0.0
22/11:00pm 24.7 21.5 6.9 32 9.4 NE 13 17 7 9 1018.9 1018.4 0.0
22/10:30pm 26.2 24.3 6.8 29 10.3 NNE 6 9 3 5 1018.8 1018.3 0.0
22/10:00pm 26.8 23.6 6.8 28 10.6 NNW 13 19 7 10 1018.3 1017.8 0.0
22/09:30pm 26.4 24.5 7.4 30 10.2 NNE 7 9 4 5 1017.7 1017.1 0.0
22/09:00pm 26.8 24.5 7.3 29 10.4 ENE 9 13 5 7 1017.3 1016.7 0.0
22/08:30pm 27.4 24.7 7.3 28 10.8 SSE 11 19 6 10 1017.4 1016.8 0.0
22/08:00pm 27.4 23.3 7.8 29 10.6 SSE 19 26 10 14 1017.1 1016.5 0.0
22/07:30pm 28.2 22.7 7.4 27 11.3 S 26 33 14 18 1017.5 1016.9 0.0
22/07:00pm 28.7 19.7 7.3 26 11.6 SSW 44 63 24 34 1017.3 1016.7 0.0
22/06:50pm 30.0 22.1 6.0 22 12.8 SSW 37 61 20 33 1017.1 1016.5 0.0
22/06:41pm 31.7 25.0 3.7 17 14.5 WSW 28 37 15 20 1016.7 1016.1 0.0
22/06:30pm 32.7 29.3 1.7 14 15.7 W 9 9 5 5 1016.3 1015.7 0.0
22/06:00pm 33.1 28.6 2.0 14 15.8 WNW 15 20 8 11 1016.2 1015.6 0.0
22/05:30pm 33.7 30.4 2.5 14 16.1 NNW 9 17 5 9 1015.9 1015.3 0.0
22/05:00pm 34.8 31.1 2.3 13 16.8 WSW 11 22 6 12 1016.0 1015.4 0.0
22/04:30pm 34.1 29.7 2.8 14 16.2 NNW 15 26 8 14 1016.1 1015.5 0.0
22/04:00pm 34.3 30.3 4.9 16 15.8 N 15 28 8 15 1016.4 1015.8 0.0
22/03:30pm 32.9 30.7 5.5 18 14.7 NW 6 15 3 8 1017.1 1016.5 0.0

Other Formats:

Comma delimited format used in spreadsheet applications
http://www.bom.gov.au/fwo/IDN60801/IDN60801.94710.axf

JavaScript Object Notation format (JSON) in row-major order
http://www.bom.gov.au/fwo/IDN60801/IDN60801.94710.json